sensor_id;sensor_type;location;lat;lon;timestamp;P1;durP1;ratioP1;P2;durP2;ratioP2
58615;SDS011;44385;51.992;4.206;2023-08-21T00:00:13;5.68;;;2.20;;
58615;SDS011;44385;51.992;4.206;2023-08-21T00:02:41;5.35;;;2.17;;
58615;SDS011;44385;51.992;4.206;2023-08-21T00:05:07;5.70;;;2.35;;
58615;SDS011;44385;51.992;4.206;2023-08-21T00:07:35;4.40;;;2.33;;
58615;SDS011;44385;51.992;4.206;2023-08-21T00:10:01;4.57;;;1.95;;
58615;SDS011;44385;51.992;4.206;2023-08-21T00:12:27;5.50;;;2.40;;
58615;SDS011;44385;51.992;4.206;2023-08-21T00:14:54;4.72;;;2.22;;
58615;SDS011;44385;51.992;4.206;2023-08-21T00:17:20;4.88;;;2.67;;
58615;SDS011;44385;51.992;4.206;2023-08-21T00:19:48;8.02;;;2.38;;
58615;SDS011;44385;51.992;4.206;2023-08-21T00:22:15;3.60;;;2.40;;
58615;SDS011;44385;51.992;4.206;2023-08-21T00:24:41;7.72;;;2.22;;
58615;SDS011;44385;51.992;4.206;2023-08-21T00:27:08;5.07;;;2.00;;
58615;SDS011;44385;51.992;4.206;2023-08-21T00:29:34;6.82;;;2.40;;
58615;SDS011;44385;51.992;4.206;2023-08-21T00:32:01;5.68;;;2.45;;
58615;SDS011;44385;51.992;4.206;2023-08-21T00:34:27;5.10;;;2.15;;
58615;SDS011;44385;51.992;4.206;2023-08-21T00:36:55;5.22;;;2.33;;
58615;SDS011;44385;51.992;4.206;2023-08-21T00:39:22;4.90;;;2.20;;
58615;SDS011;44385;51.992;4.206;2023-08-21T00:41:48;5.50;;;1.95;;
58615;SDS011;44385;51.992;4.206;2023-08-21T00:44:15;6.20;;;2.40;;
58615;SDS011;44385;51.992;4.206;2023-08-21T00:46:41;3.45;;;2.00;;
58615;SDS011;44385;51.992;4.206;2023-08-21T00:49:08;7.38;;;2.33;;
58615;SDS011;44385;51.992;4.206;2023-08-21T00:51:34;3.78;;;2.15;;
58615;SDS011;44385;51.992;4.206;2023-08-21T00:54:02;7.35;;;2.70;;
58615;SDS011;44385;51.992;4.206;2023-08-21T00:56:32;5.90;;;2.03;;
58615;SDS011;44385;51.992;4.206;2023-08-21T01:01:25;6.55;;;2.22;;
58615;SDS011;44385;51.992;4.206;2023-08-21T01:03:52;7.35;;;2.58;;
58615;SDS011;44385;51.992;4.206;2023-08-21T01:06:18;8.18;;;2.53;;
58615;SDS011;44385;51.992;4.206;2023-08-21T01:08:46;3.40;;;2.28;;
58615;SDS011;44385;51.992;4.206;2023-08-21T01:11:18;4.20;;;1.85;;
58615;SDS011;44385;51.992;4.206;2023-08-21T01:13:48;5.55;;;2.75;;
58615;SDS011;44385;51.992;4.206;2023-08-21T01:16:15;4.55;;;2.20;;
58615;SDS011;44385;51.992;4.206;2023-08-21T01:18:42;5.47;;;2.50;;
58615;SDS011;44385;51.992;4.206;2023-08-21T01:21:09;5.50;;;2.63;;
58615;SDS011;44385;51.992;4.206;2023-08-21T01:23:38;7.03;;;2.83;;
58615;SDS011;44385;51.992;4.206;2023-08-21T01:26:04;10.32;;;2.63;;
58615;SDS011;44385;51.992;4.206;2023-08-21T01:28:31;7.65;;;2.72;;
58615;SDS011;44385;51.992;4.206;2023-08-21T01:30:59;7.90;;;2.70;;
58615;SDS011;44385;51.992;4.206;2023-08-21T01:35:54;6.70;;;2.47;;
58615;SDS011;44385;51.992;4.206;2023-08-21T01:38:21;8.40;;;2.40;;
58615;SDS011;44385;51.992;4.206;2023-08-21T01:40:49;9.23;;;2.70;;
58615;SDS011;44385;51.992;4.206;2023-08-21T01:43:15;8.30;;;3.05;;
58615;SDS011;44385;51.992;4.206;2023-08-21T01:45:42;7.53;;;2.35;;
58615;SDS011;44385;51.992;4.206;2023-08-21T01:48:08;7.72;;;2.08;;
58615;SDS011;44385;51.992;4.206;2023-08-21T01:50:35;7.25;;;2.70;;
58615;SDS011;44385;51.992;4.206;2023-08-21T01:53:01;5.72;;;2.65;;
58615;SDS011;44385;51.992;4.206;2023-08-21T01:55:27;8.35;;;2.80;;
58615;SDS011;44385;51.992;4.206;2023-08-21T01:57:56;10.40;;;2.80;;
58615;SDS011;44385;51.992;4.206;2023-08-21T02:00:23;8.32;;;3.22;;
58615;SDS011;44385;51.992;4.206;2023-08-21T02:02:50;7.63;;;3.00;;
58615;SDS011;44385;51.992;4.206;2023-08-21T02:05:16;6.65;;;2.58;;
58615;SDS011;44385;51.992;4.206;2023-08-21T02:07:42;8.00;;;3.20;;
58615;SDS011;44385;51.992;4.206;2023-08-21T02:10:09;11.23;;;2.63;;
58615;SDS011;44385;51.992;4.206;2023-08-21T02:12:36;6.72;;;2.42;;
58615;SDS011;44385;51.992;4.206;2023-08-21T02:15:04;7.30;;;3.28;;
58615;SDS011;44385;51.992;4.206;2023-08-21T02:17:31;5.40;;;2.88;;
58615;SDS011;44385;51.992;4.206;2023-08-21T02:19:57;5.05;;;2.58;;
58615;SDS011;44385;51.992;4.206;2023-08-21T02:22:24;6.65;;;2.70;;
58615;SDS011;44385;51.992;4.206;2023-08-21T02:24:51;7.78;;;2.92;;
58615;SDS011;44385;51.992;4.206;2023-08-21T02:27:17;8.05;;;3.47;;
58615;SDS011;44385;51.992;4.206;2023-08-21T02:29:43;5.85;;;2.83;;
58615;SDS011;44385;51.992;4.206;2023-08-21T02:32:11;11.55;;;3.47;;
58615;SDS011;44385;51.992;4.206;2023-08-21T02:34:38;6.93;;;3.00;;
58615;SDS011;44385;51.992;4.206;2023-08-21T02:37:04;6.40;;;2.78;;
58615;SDS011;44385;51.992;4.206;2023-08-21T02:39:31;4.70;;;2.78;;
58615;SDS011;44385;51.992;4.206;2023-08-21T02:41:57;5.20;;;2.67;;
58615;SDS011;44385;51.992;4.206;2023-08-21T02:44:24;7.82;;;2.47;;
58615;SDS011;44385;51.992;4.206;2023-08-21T02:46:50;7.88;;;2.63;;
58615;SDS011;44385;51.992;4.206;2023-08-21T02:49:18;6.25;;;3.03;;
58615;SDS011;44385;51.992;4.206;2023-08-21T02:51:45;6.03;;;2.40;;
58615;SDS011;44385;51.992;4.206;2023-08-21T02:54:11;4.78;;;2.80;;
58615;SDS011;44385;51.992;4.206;2023-08-21T02:56:39;6.35;;;3.05;;
58615;SDS011;44385;51.992;4.206;2023-08-21T02:59:05;7.05;;;3.03;;
58615;SDS011;44385;51.992;4.206;2023-08-21T03:01:31;5.20;;;2.70;;
58615;SDS011;44385;51.992;4.206;2023-08-21T03:04:00;9.03;;;2.90;;
58615;SDS011;44385;51.992;4.206;2023-08-21T03:06:28;7.28;;;2.80;;
58615;SDS011;44385;51.992;4.206;2023-08-21T03:08:55;6.82;;;3.15;;
58615;SDS011;44385;51.992;4.206;2023-08-21T03:11:21;5.80;;;2.72;;
58615;SDS011;44385;51.992;4.206;2023-08-21T03:13:47;3.90;;;2.47;;
58615;SDS011;44385;51.992;4.206;2023-08-21T03:16:14;6.78;;;3.03;;
58615;SDS011;44385;51.992;4.206;2023-08-21T03:18:53;7.82;;;2.85;;
58615;SDS011;44385;51.992;4.206;2023-08-21T03:21:20;5.28;;;2.80;;
58615;SDS011;44385;51.992;4.206;2023-08-21T03:23:49;4.45;;;2.80;;
58615;SDS011;44385;51.992;4.206;2023-08-21T03:26:15;6.00;;;2.55;;
58615;SDS011;44385;51.992;4.206;2023-08-21T03:28:42;7.00;;;3.00;;
58615;SDS011;44385;51.992;4.206;2023-08-21T03:31:08;4.65;;;2.65;;
58615;SDS011;44385;51.992;4.206;2023-08-21T03:33:35;6.93;;;3.03;;
58615;SDS011;44385;51.992;4.206;2023-08-21T03:36:01;8.20;;;3.67;;
58615;SDS011;44385;51.992;4.206;2023-08-21T03:38:27;9.35;;;3.33;;
58615;SDS011;44385;51.992;4.206;2023-08-21T03:43:24;4.57;;;2.60;;
58615;SDS011;44385;51.992;4.206;2023-08-21T03:45:51;7.55;;;3.33;;
58615;SDS011;44385;51.992;4.206;2023-08-21T03:48:17;7.80;;;3.13;;
58615;SDS011;44385;51.992;4.206;2023-08-21T03:50:44;8.57;;;3.45;;
58615;SDS011;44385;51.992;4.206;2023-08-21T03:53:10;8.02;;;3.10;;
58615;SDS011;44385;51.992;4.206;2023-08-21T03:55:37;8.13;;;3.53;;
58615;SDS011;44385;51.992;4.206;2023-08-21T03:58:03;9.32;;;3.60;;
58615;SDS011;44385;51.992;4.206;2023-08-21T04:00:31;8.15;;;3.17;;
58615;SDS011;44385;51.992;4.206;2023-08-21T04:02:59;11.67;;;4.10;;
58615;SDS011;44385;51.992;4.206;2023-08-21T04:05:26;9.10;;;3.70;;
58615;SDS011;44385;51.992;4.206;2023-08-21T04:07:52;7.85;;;4.07;;
58615;SDS011;44385;51.992;4.206;2023-08-21T04:10:19;10.68;;;4.68;;
58615;SDS011;44385;51.992;4.206;2023-08-21T04:12:45;13.10;;;4.20;;
58615;SDS011;44385;51.992;4.206;2023-08-21T04:15:12;9.80;;;4.22;;
58615;SDS011;44385;51.992;4.206;2023-08-21T04:17:40;7.15;;;4.45;;
58615;SDS011;44385;51.992;4.206;2023-08-21T04:20:07;9.00;;;5.15;;
58615;SDS011;44385;51.992;4.206;2023-08-21T04:22:33;9.20;;;4.22;;
58615;SDS011;44385;51.992;4.206;2023-08-21T04:25:00;7.22;;;4.50;;
58615;SDS011;44385;51.992;4.206;2023-08-21T04:27:26;10.40;;;4.88;;
58615;SDS011;44385;51.992;4.206;2023-08-21T04:29:53;11.48;;;4.32;;
58615;SDS011;44385;51.992;4.206;2023-08-21T04:32:19;11.18;;;4.35;;
58615;SDS011;44385;51.992;4.206;2023-08-21T04:34:47;8.60;;;4.25;;
58615;SDS011;44385;51.992;4.206;2023-08-21T04:37:14;8.55;;;3.63;;
58615;SDS011;44385;51.992;4.206;2023-08-21T04:39:40;6.82;;;3.80;;
58615;SDS011;44385;51.992;4.206;2023-08-21T04:42:07;9.35;;;3.65;;
58615;SDS011;44385;51.992;4.206;2023-08-21T04:44:33;8.77;;;3.53;;
58615;SDS011;44385;51.992;4.206;2023-08-21T04:47:13;10.82;;;4.30;;
58615;SDS011;44385;51.992;4.206;2023-08-21T04:49:44;7.63;;;4.60;;
58615;SDS011;44385;51.992;4.206;2023-08-21T04:52:12;9.63;;;4.35;;
58615;SDS011;44385;51.992;4.206;2023-08-21T04:54:39;5.82;;;4.03;;
58615;SDS011;44385;51.992;4.206;2023-08-21T04:57:05;10.35;;;4.68;;
58615;SDS011;44385;51.992;4.206;2023-08-21T04:59:31;8.75;;;3.72;;
58615;SDS011;44385;51.992;4.206;2023-08-21T05:02:01;11.07;;;4.20;;
58615;SDS011;44385;51.992;4.206;2023-08-21T05:04:30;7.80;;;4.47;;
58615;SDS011;44385;51.992;4.206;2023-08-21T05:06:56;13.65;;;4.22;;
58615;SDS011;44385;51.992;4.206;2023-08-21T05:09:24;9.63;;;4.90;;
58615;SDS011;44385;51.992;4.206;2023-08-21T05:11:50;10.32;;;3.95;;
58615;SDS011;44385;51.992;4.206;2023-08-21T05:14:17;12.43;;;5.43;;
58615;SDS011;44385;51.992;4.206;2023-08-21T05:16:44;14.80;;;5.78;;
58615;SDS011;44385;51.992;4.206;2023-08-21T05:19:11;12.20;;;5.38;;
58615;SDS011;44385;51.992;4.206;2023-08-21T05:21:38;9.40;;;5.43;;
58615;SDS011;44385;51.992;4.206;2023-08-21T05:24:04;15.57;;;6.03;;
58615;SDS011;44385;51.992;4.206;2023-08-21T05:26:32;11.13;;;5.20;;
58615;SDS011;44385;51.992;4.206;2023-08-21T05:28:59;16.90;;;6.18;;
58615;SDS011;44385;51.992;4.206;2023-08-21T05:31:25;14.30;;;6.40;;
58615;SDS011;44385;51.992;4.206;2023-08-21T05:33:52;14.10;;;6.57;;
58615;SDS011;44385;51.992;4.206;2023-08-21T05:36:18;15.13;;;5.90;;
58615;SDS011;44385;51.992;4.206;2023-08-21T05:38:45;10.48;;;5.45;;
58615;SDS011;44385;51.992;4.206;2023-08-21T05:41:13;13.15;;;5.97;;
58615;SDS011;44385;51.992;4.206;2023-08-21T05:43:40;17.02;;;7.03;;
58615;SDS011;44385;51.992;4.206;2023-08-21T05:46:07;11.50;;;5.47;;
58615;SDS011;44385;51.992;4.206;2023-08-21T05:48:33;12.90;;;6.75;;
58615;SDS011;44385;51.992;4.206;2023-08-21T05:51:00;19.15;;;7.82;;
58615;SDS011;44385;51.992;4.206;2023-08-21T05:53:26;17.83;;;8.10;;
58615;SDS011;44385;51.992;4.206;2023-08-21T05:55:53;14.73;;;6.90;;
58615;SDS011;44385;51.992;4.206;2023-08-21T05:58:20;15.77;;;7.85;;
58615;SDS011;44385;51.992;4.206;2023-08-21T06:00:47;17.45;;;6.93;;
58615;SDS011;44385;51.992;4.206;2023-08-21T06:03:14;15.23;;;6.82;;
58615;SDS011;44385;51.992;4.206;2023-08-21T06:05:40;15.70;;;7.63;;
58615;SDS011;44385;51.992;4.206;2023-08-21T06:08:08;15.05;;;6.53;;
58615;SDS011;44385;51.992;4.206;2023-08-21T06:10:35;15.95;;;7.68;;
58615;SDS011;44385;51.992;4.206;2023-08-21T06:13:01;15.15;;;7.57;;
58615;SDS011;44385;51.992;4.206;2023-08-21T06:15:28;13.85;;;6.50;;
58615;SDS011;44385;51.992;4.206;2023-08-21T06:17:57;18.23;;;7.05;;
58615;SDS011;44385;51.992;4.206;2023-08-21T06:20:26;13.55;;;6.65;;
58615;SDS011;44385;51.992;4.206;2023-08-21T06:22:52;17.77;;;6.70;;
58615;SDS011;44385;51.992;4.206;2023-08-21T06:25:19;12.32;;;6.40;;
58615;SDS011;44385;51.992;4.206;2023-08-21T06:27:46;12.25;;;5.50;;
58615;SDS011;44385;51.992;4.206;2023-08-21T06:30:12;11.80;;;5.00;;
58615;SDS011;44385;51.992;4.206;2023-08-21T06:35:09;10.40;;;4.25;;
58615;SDS011;44385;51.992;4.206;2023-08-21T06:37:36;13.48;;;4.03;;
58615;SDS011;44385;51.992;4.206;2023-08-21T06:40:02;14.05;;;3.75;;
58615;SDS011;44385;51.992;4.206;2023-08-21T06:42:29;8.27;;;3.38;;
58615;SDS011;44385;51.992;4.206;2023-08-21T06:44:56;10.00;;;3.33;;
58615;SDS011;44385;51.992;4.206;2023-08-21T06:47:22;11.65;;;3.45;;
58615;SDS011;44385;51.992;4.206;2023-08-21T06:49:48;13.05;;;4.20;;
58615;SDS011;44385;51.992;4.206;2023-08-21T06:52:17;16.33;;;3.50;;
58615;SDS011;44385;51.992;4.206;2023-08-21T06:54:43;10.32;;;3.83;;
58615;SDS011;44385;51.992;4.206;2023-08-21T06:57:10;10.65;;;3.78;;
58615;SDS011;44385;51.992;4.206;2023-08-21T06:59:36;12.30;;;3.20;;
58615;SDS011;44385;51.992;4.206;2023-08-21T07:02:03;8.90;;;3.60;;
58615;SDS011;44385;51.992;4.206;2023-08-21T07:04:30;11.07;;;2.95;;
58615;SDS011;44385;51.992;4.206;2023-08-21T07:07:00;8.95;;;3.20;;
58615;SDS011;44385;51.992;4.206;2023-08-21T07:09:28;13.93;;;3.80;;
58615;SDS011;44385;51.992;4.206;2023-08-21T07:11:55;12.23;;;3.65;;
58615;SDS011;44385;51.992;4.206;2023-08-21T07:14:21;12.27;;;3.35;;
58615;SDS011;44385;51.992;4.206;2023-08-21T07:16:48;12.65;;;3.30;;
58615;SDS011;44385;51.992;4.206;2023-08-21T07:19:14;9.05;;;3.47;;
58615;SDS011;44385;51.992;4.206;2023-08-21T07:21:40;10.10;;;3.88;;
58615;SDS011;44385;51.992;4.206;2023-08-21T07:24:07;10.50;;;3.28;;
58615;SDS011;44385;51.992;4.206;2023-08-21T07:26:35;7.35;;;3.58;;
58615;SDS011;44385;51.992;4.206;2023-08-21T07:29:01;13.57;;;2.88;;
58615;SDS011;44385;51.992;4.206;2023-08-21T07:31:29;8.15;;;2.53;;
58615;SDS011;44385;51.992;4.206;2023-08-21T07:33:56;8.82;;;2.85;;
58615;SDS011;44385;51.992;4.206;2023-08-21T07:36:22;6.93;;;2.30;;
58615;SDS011;44385;51.992;4.206;2023-08-21T07:38:49;6.63;;;2.78;;
58615;SDS011;44385;51.992;4.206;2023-08-21T07:41:15;9.15;;;2.55;;
58615;SDS011;44385;51.992;4.206;2023-08-21T07:43:43;10.93;;;2.45;;
58615;SDS011;44385;51.992;4.206;2023-08-21T07:46:10;6.32;;;2.40;;
58615;SDS011;44385;51.992;4.206;2023-08-21T07:48:39;6.28;;;2.53;;
58615;SDS011;44385;51.992;4.206;2023-08-21T07:51:05;6.82;;;2.20;;
58615;SDS011;44385;51.992;4.206;2023-08-21T07:53:31;8.15;;;2.97;;
58615;SDS011;44385;51.992;4.206;2023-08-21T07:56:00;7.38;;;2.90;;
58615;SDS011;44385;51.992;4.206;2023-08-21T07:58:26;8.48;;;2.60;;
58615;SDS011;44385;51.992;4.206;2023-08-21T08:00:54;6.22;;;2.20;;
58615;SDS011;44385;51.992;4.206;2023-08-21T08:03:21;5.80;;;2.00;;
58615;SDS011;44385;51.992;4.206;2023-08-21T08:05:47;3.97;;;2.10;;
58615;SDS011;44385;51.992;4.206;2023-08-21T08:08:16;7.75;;;2.50;;
58615;SDS011;44385;51.992;4.206;2023-08-21T08:10:42;4.90;;;1.77;;
58615;SDS011;44385;51.992;4.206;2023-08-21T08:13:09;5.10;;;1.85;;
58615;SDS011;44385;51.992;4.206;2023-08-21T08:15:35;5.07;;;2.42;;
58615;SDS011;44385;51.992;4.206;2023-08-21T08:18:03;5.18;;;2.10;;
58615;SDS011;44385;51.992;4.206;2023-08-21T08:20:32;3.90;;;1.80;;
58615;SDS011;44385;51.992;4.206;2023-08-21T08:22:59;7.20;;;1.60;;
58615;SDS011;44385;51.992;4.206;2023-08-21T08:25:25;4.32;;;1.90;;
58615;SDS011;44385;51.992;4.206;2023-08-21T08:27:52;8.13;;;2.53;;
58615;SDS011;44385;51.992;4.206;2023-08-21T08:30:19;4.53;;;2.22;;
58615;SDS011;44385;51.992;4.206;2023-08-21T08:32:46;9.30;;;2.22;;
58615;SDS011;44385;51.992;4.206;2023-08-21T08:35:14;3.95;;;1.40;;
58615;SDS011;44385;51.992;4.206;2023-08-21T08:37:40;6.28;;;1.83;;
58615;SDS011;44385;51.992;4.206;2023-08-21T08:40:07;5.85;;;1.65;;
58615;SDS011;44385;51.992;4.206;2023-08-21T08:42:34;3.45;;;1.83;;
58615;SDS011;44385;51.992;4.206;2023-08-21T08:45:00;6.53;;;2.15;;
58615;SDS011;44385;51.992;4.206;2023-08-21T08:47:28;3.53;;;1.80;;
58615;SDS011;44385;51.992;4.206;2023-08-21T08:49:56;6.15;;;1.77;;
58615;SDS011;44385;51.992;4.206;2023-08-21T08:52:23;7.07;;;1.95;;
58615;SDS011;44385;51.992;4.206;2023-08-21T08:54:52;5.30;;;1.80;;
58615;SDS011;44385;51.992;4.206;2023-08-21T08:57:19;5.38;;;2.00;;
58615;SDS011;44385;51.992;4.206;2023-08-21T08:59:45;4.70;;;1.92;;
58615;SDS011;44385;51.992;4.206;2023-08-21T09:02:12;4.88;;;2.08;;
58615;SDS011;44385;51.992;4.206;2023-08-21T09:04:38;4.85;;;1.40;;
58615;SDS011;44385;51.992;4.206;2023-08-21T09:07:07;5.28;;;1.85;;
58615;SDS011;44385;51.992;4.206;2023-08-21T09:09:39;3.03;;;1.23;;
58615;SDS011;44385;51.992;4.206;2023-08-21T09:12:08;6.82;;;1.88;;
58615;SDS011;44385;51.992;4.206;2023-08-21T09:14:35;3.13;;;1.30;;
58615;SDS011;44385;51.992;4.206;2023-08-21T09:17:01;5.60;;;1.58;;
58615;SDS011;44385;51.992;4.206;2023-08-21T09:19:28;4.55;;;1.73;;
58615;SDS011;44385;51.992;4.206;2023-08-21T09:21:55;7.38;;;1.70;;
58615;SDS011;44385;51.992;4.206;2023-08-21T09:24:21;2.95;;;1.35;;
58615;SDS011;44385;51.992;4.206;2023-08-21T09:26:50;3.88;;;1.75;;
58615;SDS011;44385;51.992;4.206;2023-08-21T09:29:16;5.43;;;2.15;;
58615;SDS011;44385;51.992;4.206;2023-08-21T09:31:43;7.72;;;2.20;;
58615;SDS011;44385;51.992;4.206;2023-08-21T09:34:11;4.13;;;1.40;;
58615;SDS011;44385;51.992;4.206;2023-08-21T09:36:37;5.10;;;1.42;;
58615;SDS011;44385;51.992;4.206;2023-08-21T09:39:04;4.65;;;1.80;;
58615;SDS011;44385;51.992;4.206;2023-08-21T09:41:31;4.13;;;1.55;;
58615;SDS011;44385;51.992;4.206;2023-08-21T09:44:00;4.95;;;1.92;;
58615;SDS011;44385;51.992;4.206;2023-08-21T09:46:26;3.75;;;1.58;;
58615;SDS011;44385;51.992;4.206;2023-08-21T09:48:53;3.80;;;1.42;;
58615;SDS011;44385;51.992;4.206;2023-08-21T09:51:20;4.45;;;1.58;;
58615;SDS011;44385;51.992;4.206;2023-08-21T09:53:47;5.57;;;1.95;;
58615;SDS011;44385;51.992;4.206;2023-08-21T09:56:13;3.28;;;2.03;;
58615;SDS011;44385;51.992;4.206;2023-08-21T09:58:40;2.83;;;1.48;;
58615;SDS011;44385;51.992;4.206;2023-08-21T10:01:08;5.90;;;1.80;;
58615;SDS011;44385;51.992;4.206;2023-08-21T10:03:39;5.18;;;1.60;;
58615;SDS011;44385;51.992;4.206;2023-08-21T10:06:07;4.22;;;1.60;;
58615;SDS011;44385;51.992;4.206;2023-08-21T10:08:37;4.00;;;1.35;;
58615;SDS011;44385;51.992;4.206;2023-08-21T10:11:04;3.63;;;1.45;;
58615;SDS011;44385;51.992;4.206;2023-08-21T10:13:31;2.67;;;1.42;;
58615;SDS011;44385;51.992;4.206;2023-08-21T10:15:58;2.80;;;1.25;;
58615;SDS011;44385;51.992;4.206;2023-08-21T10:18:31;5.18;;;1.60;;
58615;SDS011;44385;51.992;4.206;2023-08-21T10:23:39;4.03;;;1.90;;
58615;SDS011;44385;51.992;4.206;2023-08-21T10:26:07;6.07;;;1.83;;
58615;SDS011;44385;51.992;4.206;2023-08-21T10:28:43;5.28;;;2.63;;
58615;SDS011;44385;51.992;4.206;2023-08-21T10:34:03;4.95;;;1.60;;
58615;SDS011;44385;51.992;4.206;2023-08-21T10:36:39;4.78;;;1.80;;
58615;SDS011;44385;51.992;4.206;2023-08-21T10:39:12;5.32;;;1.60;;
58615;SDS011;44385;51.992;4.206;2023-08-21T10:41:38;5.63;;;1.60;;
58615;SDS011;44385;51.992;4.206;2023-08-21T10:44:05;5.20;;;1.70;;
58615;SDS011;44385;51.992;4.206;2023-08-21T10:46:39;5.30;;;1.88;;
58615;SDS011;44385;51.992;4.206;2023-08-21T10:49:17;5.30;;;1.70;;
58615;SDS011;44385;51.992;4.206;2023-08-21T10:51:43;6.63;;;1.60;;
58615;SDS011;44385;51.992;4.206;2023-08-21T10:54:10;5.78;;;1.80;;
58615;SDS011;44385;51.992;4.206;2023-08-21T10:56:37;2.92;;;1.40;;
58615;SDS011;44385;51.992;4.206;2023-08-21T10:59:03;6.28;;;2.15;;
58615;SDS011;44385;51.992;4.206;2023-08-21T11:01:41;8.20;;;2.00;;
58615;SDS011;44385;51.992;4.206;2023-08-21T11:04:09;5.10;;;2.50;;
58615;SDS011;44385;51.992;4.206;2023-08-21T11:06:37;2.65;;;1.13;;
58615;SDS011;44385;51.992;4.206;2023-08-21T11:09:03;4.47;;;2.00;;
58615;SDS011;44385;51.992;4.206;2023-08-21T11:11:30;3.78;;;1.25;;
58615;SDS011;44385;51.992;4.206;2023-08-21T11:13:57;4.25;;;1.88;;
58615;SDS011;44385;51.992;4.206;2023-08-21T11:16:24;6.55;;;1.77;;
58615;SDS011;44385;51.992;4.206;2023-08-21T11:18:51;6.78;;;2.30;;
58615;SDS011;44385;51.992;4.206;2023-08-21T11:21:17;4.38;;;1.63;;
58615;SDS011;44385;51.992;4.206;2023-08-21T11:23:45;4.55;;;2.03;;
58615;SDS011;44385;51.992;4.206;2023-08-21T11:26:11;4.75;;;1.67;;
58615;SDS011;44385;51.992;4.206;2023-08-21T11:28:38;2.95;;;1.50;;
58615;SDS011;44385;51.992;4.206;2023-08-21T11:31:05;5.63;;;2.05;;
58615;SDS011;44385;51.992;4.206;2023-08-21T11:33:32;5.80;;;1.77;;
58615;SDS011;44385;51.992;4.206;2023-08-21T11:35:59;5.72;;;1.52;;
58615;SDS011;44385;51.992;4.206;2023-08-21T11:38:26;5.90;;;1.60;;
58615;SDS011;44385;51.992;4.206;2023-08-21T11:40:56;2.33;;;1.50;;
58615;SDS011;44385;51.992;4.206;2023-08-21T11:43:23;3.85;;;1.50;;
58615;SDS011;44385;51.992;4.206;2023-08-21T11:46:00;5.35;;;2.00;;
58615;SDS011;44385;51.992;4.206;2023-08-21T11:48:26;4.80;;;1.88;;
58615;SDS011;44385;51.992;4.206;2023-08-21T11:50:53;7.15;;;1.80;;
58615;SDS011;44385;51.992;4.206;2023-08-21T11:53:29;4.35;;;1.92;;
58615;SDS011;44385;51.992;4.206;2023-08-21T11:55:59;6.15;;;1.77;;
58615;SDS011;44385;51.992;4.206;2023-08-21T11:58:26;3.05;;;1.40;;
58615;SDS011;44385;51.992;4.206;2023-08-21T12:00:52;4.97;;;1.80;;
58615;SDS011;44385;51.992;4.206;2023-08-21T12:03:19;5.32;;;1.50;;
58615;SDS011;44385;51.992;4.206;2023-08-21T12:05:45;3.33;;;1.95;;
58615;SDS011;44385;51.992;4.206;2023-08-21T12:08:12;4.28;;;1.65;;
58615;SDS011;44385;51.992;4.206;2023-08-21T12:10:38;3.65;;;1.63;;
58615;SDS011;44385;51.992;4.206;2023-08-21T12:13:06;3.05;;;1.60;;
58615;SDS011;44385;51.992;4.206;2023-08-21T12:15:32;4.20;;;1.88;;
58615;SDS011;44385;51.992;4.206;2023-08-21T12:18:00;5.80;;;1.73;;
58615;SDS011;44385;51.992;4.206;2023-08-21T12:20:26;3.08;;;1.70;;
58615;SDS011;44385;51.992;4.206;2023-08-21T12:22:52;4.53;;;1.52;;
58615;SDS011;44385;51.992;4.206;2023-08-21T12:25:19;3.53;;;1.55;;
58615;SDS011;44385;51.992;4.206;2023-08-21T12:27:45;3.78;;;1.42;;
58615;SDS011;44385;51.992;4.206;2023-08-21T12:30:13;5.32;;;1.55;;
58615;SDS011;44385;51.992;4.206;2023-08-21T12:32:40;6.37;;;1.73;;
58615;SDS011;44385;51.992;4.206;2023-08-21T12:35:07;1.58;;;1.30;;
58615;SDS011;44385;51.992;4.206;2023-08-21T12:37:37;4.55;;;1.67;;
58615;SDS011;44385;51.992;4.206;2023-08-21T12:40:03;3.40;;;1.52;;
58615;SDS011;44385;51.992;4.206;2023-08-21T12:42:30;5.57;;;1.58;;
58615;SDS011;44385;51.992;4.206;2023-08-21T12:44:57;3.88;;;1.73;;
58615;SDS011;44385;51.992;4.206;2023-08-21T12:47:25;4.75;;;1.80;;
58615;SDS011;44385;51.992;4.206;2023-08-21T12:49:51;3.10;;;1.83;;
58615;SDS011;44385;51.992;4.206;2023-08-21T12:52:18;4.75;;;1.40;;
58615;SDS011;44385;51.992;4.206;2023-08-21T12:54:44;5.43;;;1.75;;
58615;SDS011;44385;51.992;4.206;2023-08-21T12:57:11;4.03;;;1.38;;
58615;SDS011;44385;51.992;4.206;2023-08-21T12:59:37;4.70;;;1.33;;
58615;SDS011;44385;51.992;4.206;2023-08-21T13:02:04;4.45;;;1.52;;
58615;SDS011;44385;51.992;4.206;2023-08-21T13:04:32;3.10;;;1.25;;
58615;SDS011;44385;51.992;4.206;2023-08-21T13:06:59;4.65;;;1.52;;
58615;SDS011;44385;51.992;4.206;2023-08-21T13:09:26;3.42;;;1.67;;
58615;SDS011;44385;51.992;4.206;2023-08-21T13:11:53;3.70;;;2.00;;
58615;SDS011;44385;51.992;4.206;2023-08-21T13:14:20;6.28;;;1.67;;
58615;SDS011;44385;51.992;4.206;2023-08-21T13:16:46;6.07;;;1.42;;
58615;SDS011;44385;51.992;4.206;2023-08-21T13:19:13;3.85;;;1.92;;
58615;SDS011;44385;51.992;4.206;2023-08-21T13:21:40;3.95;;;1.42;;
58615;SDS011;44385;51.992;4.206;2023-08-21T13:24:08;4.72;;;1.50;;
58615;SDS011;44385;51.992;4.206;2023-08-21T13:26:34;4.82;;;1.63;;
58615;SDS011;44385;51.992;4.206;2023-08-21T13:29:01;5.03;;;1.55;;
58615;SDS011;44385;51.992;4.206;2023-08-21T13:31:27;4.68;;;1.55;;
58615;SDS011;44385;51.992;4.206;2023-08-21T13:33:55;2.80;;;1.30;;
58615;SDS011;44385;51.992;4.206;2023-08-21T13:36:21;2.67;;;1.55;;
58615;SDS011;44385;51.992;4.206;2023-08-21T13:38:52;3.80;;;1.88;;
58615;SDS011;44385;51.992;4.206;2023-08-21T13:41:19;5.47;;;1.77;;
58615;SDS011;44385;51.992;4.206;2023-08-21T13:43:45;4.97;;;1.83;;
58615;SDS011;44385;51.992;4.206;2023-08-21T13:46:12;3.78;;;1.85;;
58615;SDS011;44385;51.992;4.206;2023-08-21T13:48:39;5.10;;;1.75;;
58615;SDS011;44385;51.992;4.206;2023-08-21T13:51:05;6.40;;;1.70;;
58615;SDS011;44385;51.992;4.206;2023-08-21T13:53:31;3.60;;;1.63;;
58615;SDS011;44385;51.992;4.206;2023-08-21T13:56:00;3.55;;;1.60;;
58615;SDS011;44385;51.992;4.206;2023-08-21T13:58:26;3.30;;;1.55;;
58615;SDS011;44385;51.992;4.206;2023-08-21T14:00:53;4.15;;;1.33;;
58615;SDS011;44385;51.992;4.206;2023-08-21T14:03:21;4.25;;;1.45;;
58615;SDS011;44385;51.992;4.206;2023-08-21T14:05:47;4.78;;;1.85;;
58615;SDS011;44385;51.992;4.206;2023-08-21T14:08:13;5.93;;;1.80;;
58615;SDS011;44385;51.992;4.206;2023-08-21T14:10:40;4.50;;;1.83;;
58615;SDS011;44385;51.992;4.206;2023-08-21T14:13:07;7.97;;;2.20;;
58615;SDS011;44385;51.992;4.206;2023-08-21T14:15:34;4.05;;;2.00;;
58615;SDS011;44385;51.992;4.206;2023-08-21T14:18:00;2.75;;;1.50;;
58615;SDS011;44385;51.992;4.206;2023-08-21T14:20:27;3.78;;;1.90;;
58615;SDS011;44385;51.992;4.206;2023-08-21T14:22:54;6.90;;;3.28;;
58615;SDS011;44385;51.992;4.206;2023-08-21T14:25:20;5.30;;;1.88;;
58615;SDS011;44385;51.992;4.206;2023-08-21T14:27:47;7.78;;;2.03;;
58615;SDS011;44385;51.992;4.206;2023-08-21T14:30:15;4.20;;;1.60;;
58615;SDS011;44385;51.992;4.206;2023-08-21T14:32:41;5.53;;;1.97;;
58615;SDS011;44385;51.992;4.206;2023-08-21T14:35:08;3.95;;;1.60;;
58615;SDS011;44385;51.992;4.206;2023-08-21T14:37:34;3.55;;;1.98;;
58615;SDS011;44385;51.992;4.206;2023-08-21T14:40:01;3.50;;;1.83;;
58615;SDS011;44385;51.992;4.206;2023-08-21T14:42:31;3.40;;;1.75;;
58615;SDS011;44385;51.992;4.206;2023-08-21T14:44:57;3.15;;;1.85;;
58615;SDS011;44385;51.992;4.206;2023-08-21T14:47:27;4.40;;;1.50;;
58615;SDS011;44385;51.992;4.206;2023-08-21T14:49:53;5.40;;;2.00;;
58615;SDS011;44385;51.992;4.206;2023-08-21T14:52:20;3.70;;;1.77;;
58615;SDS011;44385;51.992;4.206;2023-08-21T14:54:47;4.15;;;1.70;;
58615;SDS011;44385;51.992;4.206;2023-08-21T14:57:14;2.97;;;1.80;;
58615;SDS011;44385;51.992;4.206;2023-08-21T14:59:40;5.65;;;1.65;;